Flight Track Log - Related Links

Times and Time Zones

All times are in EDT time to prevent confusion due to time zone crossing. See the JBU1329 flight status page for this flight to view local times or setup timezone preferences in your user account.

Time Position Orientation Groundspeed Altitude Reporting Facility
EDT Latitude Longitude Course Direction KTS MPH feet Rate Location/Type
Thu 09:19:29 AM 42.3667 -70.9833 262° West 159 183 1,100  Level KA90
Thu 09:20:18 AM 42.3667 -70.9333 90° East 196 226 2,300 2,239 Climbing KA90
Thu 09:21:51 AM 42.3906 -70.8011 76° East 257 296 6,400 3,176 Climbing Boston Center
Thu 09:22:00 AM 42.2893 -70.7328 228° Southwest  Level FlightAware Approximate
Thu 09:22:51 AM 42.3500 -70.7264 126° Southeast 249 287 10,400  Level Boston Center
Thu 09:23:00 AM 42.2261 -70.8335 240° Southwest  Level FlightAware Approximate
Thu 09:23:51 AM 42.2731 -70.7397 187° South 197 227 12,000  Level Boston Center
Thu 09:24:00 AM 42.1833 -70.9502 270° West  Level FlightAware Approximate
Thu 09:24:51 AM 42.2289 -70.8586 243° Southwest 239 275 15,200  Level Boston Center
Thu 09:25:00 AM 42.1719 -71.0813 262° West  Level FlightAware Approximate
Thu 09:25:51 AM 42.2117 -70.9742 259° West 306 352 17,400  Level Boston Center
Thu 09:26:51 AM 42.1967 -71.1144 262° West 363 418 19,600 2,200 Climbing Boston Center
Thu 09:27:51 AM 42.1753 -71.2550 258° West 382 440 21,800 2,150 Climbing Boston Center
Thu 09:28:51 AM 42.1475 -71.3983 255° West 394 453 23,900 1,950 Climbing Boston Center
Thu 09:29:51 AM 42.1008 -71.5308 245° Southwest 394 453 25,700 1,900 Climbing Boston Center
Thu 09:30:51 AM 42.0414 -71.6742 241° Southwest 408 470 27,700 1,200 Climbing Boston Center
Thu 09:31:51 AM 41.9881 -71.8117 242° Southwest 414 476 28,100 900 Climbing Boston Center
Thu 09:32:51 AM 41.9386 -71.9378 242° Southwest 423 487 29,500 950 Climbing Boston Center
Thu 09:33:51 AM 41.8808 -72.0861 242° Southwest 423 487 30,000 250 Climbing Boston Center
Thu 09:34:51 AM 41.8375 -72.1978 243° Southwest 418 481 30,000  Level Boston Center
Thu 09:35:51 AM 41.7731 -72.3594 242° Southwest 413 475 30,000  Level Boston Center
Thu 09:36:51 AM 41.7253 -72.4819 242° Southwest 413 475 30,000  Level Boston Center
Thu 09:37:51 AM 41.6667 -72.6319 242° Southwest 413 475 30,000  Level Boston Center
Thu 09:39:03 AM 41.6081 -72.7789 242° Southwest 413 475 30,000  Level Boston Center
Thu 09:40:03 AM 41.5492 -72.9283 242° Southwest 413 475 30,000  Level Boston Center
Thu 09:41:03 AM 41.4942 -73.0608 241° Southwest 413 475 30,000  Level Boston Center
Thu 09:42:03 AM 41.4392 -73.1961 242° Southwest 413 475 30,000  Level Boston Center
Thu 09:44:17 AM 41.3219 -73.4922 242° Southwest 423 487 30,000  Level New York Center
Thu 09:45:18 AM 41.2606 -73.6222 238° Southwest 423 487 30,000  Level New York Center
Thu 09:46:18 AM 41.1844 -73.7458 231° Southwest 428 493 30,000  Level New York Center
Thu 09:47:16 AM 41.1128 -73.8667 232° Southwest 428 493 30,000  Level New York Center
Thu 09:48:17 AM 41.0386 -73.9897 231° Southwest 428 493 30,000  Level New York Center
Thu 09:49:18 AM 40.9642 -74.1153 232° Southwest 433 498 30,000 -645 Level New York Center
Thu 09:50:18 AM 40.8856 -74.2403 230° Southwest 425 489 28,700 -1,361 Descending New York Center
Thu 09:51:17 AM 40.8156 -74.3575 232° Southwest 414 476 27,300 -1,350 Descending New York Center
Thu 09:52:18 AM 40.7475 -74.4689 231° Southwest 408 470 26,000 -655 Descending New York Center
Thu 09:53:16 AM 40.6814 -74.5831 233° Southwest 408 470 26,000  Level New York Center
Thu 09:54:18 AM 40.6089 -74.6964 230° Southwest 403 464 26,000 -293 Level New York Center
Thu 09:55:19 AM 40.5342 -74.8097 229° Southwest 408 470 25,400 -1,109 Descending New York Center
Thu 09:56:17 AM 40.4597 -74.9172 228° Southwest 408 470 23,800 -1,613 Descending New York Center
Thu 09:57:18 AM 40.3892 -75.0219 229° Southwest 408 470 22,200 -1,550 Descending New York Center
Thu 09:58:17 AM 40.3147 -75.1233 226° Southwest 398 458 20,700 -1,550 Descending New York Center
Thu 09:59:18 AM 40.2442 -75.2222 227° Southwest 393 452 19,100 -1,339 Descending New York Center
Thu 10:00:18 AM 40.1761 -75.3158 226° Southwest 387 445 18,000 -555 Descending New York Center
Thu 10:01:17 AM 40.0969 -75.4219 226° Southwest 387 445 18,000  Level New York Center
Thu 10:02:17 AM 40.0328 -75.5125 227° Southwest 382 440 18,000 -149 Level New York Center
Thu 10:03:18 AM 39.9533 -75.6236 227° Southwest 382 440 17,700 -694 Descending New York Center
Thu 10:04:18 AM 39.8883 -75.7272 231° Southwest 382 440 16,600 -1,017 Descending New York Center
Thu 10:05:16 AM 39.8317 -75.8342 235° Southwest 376 433 15,700 -1,563 Descending New York Center
Thu 10:06:17 AM 39.7792 -75.9383 237° Southwest 355 409 13,500 -1,111 Descending New York Center
Thu 10:08:00 AM 39.6892 -76.0883 237° Southwest  Level FlightAware Approximate
Thu 10:10:13 AM 39.6000 -76.2833 180° South 279 321 10,200  Level Potomac TRACON
Thu 10:12:13 AM 39.4667 -76.4000 214° Southwest 272 313 6,900 -1,544 Descending Potomac TRACON
Thu 10:14:14 AM 39.3333 -76.4167 186° South 270 311 4,000 -1,293 Descending Potomac TRACON
Thu 10:15:00 AM 39.2300 -76.6000 180° South  Level FlightAware Approximate
Thu 10:15:14 AM 39.2500 -76.4333 189° South 258 297 3,000  Level Potomac TRACON
Thu 10:16:14 AM 39.1833 -76.4667 201° Southwest 256 295 2,800 -300 Descending Potomac TRACON
Thu 10:17:14 AM 39.1333 -76.4833 194° South 221 254 2,400 -421 Descending Potomac TRACON
Thu 10:18:08 AM 39.0667 -76.5000 191° South 216 249 2,000 -222 Descending Potomac TRACON
Thu 10:19:02 AM 39.0667 -76.5500 270° West 200 230 2,000  Level Potomac TRACON

Login

Don't have an account? Register now (free) for customized features, flight alerts, and more!